Terminal Aerodrome Forecast
Issued by NWS Cleveland, OH

Home | Current Version | Previous Version | Text Only | Print | Product List | Glossary Off
Versions: 1 2 3 4 5 6 7 8 9 10 11 12 13 14 15 16 17 18 19 20 21 22 23 24

000
FTUS41 KCLE 270540
TAFCLE
TAF
KCLE 270540Z 2706/2812 06010KT 6SM -RA BR SCT025 OVC100
      TEMPO 2706/2708 5SM -RA BR OVC025
     FM270800 07012KT 5SM SHRA BR OVC025
      TEMPO 2708/2712 3SM SHRA BR OVC012
     FM271200 07014G20KT 4SM SHRA BR OVC012
      TEMPO 2712/2716 2SM SHRA BR OVC008
     FM271600 08016G26KT 3SM -SHRA BR VCTS OVC012CB
     FM272200 03014G22KT 4SM -SHRA BR VCTS OVC012CB
     FM280600 34014G22KT 4SM -SHRA BR OVC007=

USA.gov is the U.S. government's official web portal to all federal, state and local government web resources and services.